Renee' T. Whatley — WDD5243 — position and weather

sailwx.info

Track history (hours):
 
Tides and Currents Weather Stations Pressure Air Temp Water Temp Dewpoint Dewpoint Depression Visibility Wind Speed Wind Dir Waves Ship Positions

Renee' T. Whatley

Owner: Terral RiverService, Inc., Lake Providence, LA. More information available from US FCC via Universal Licensing System and Coast Guard Vessel Documentation Center.

Last reported at 2016-Aug-28 17:26 UTC. Time now 2016-Sep-28 00:10 UTC.
Position N 32°38' W 091°09'.
Warning: this ship's position is 30 days out of date.

Length 11 m.

Type: Tug. MMSI: 367155550.

Date/timePositionNaut miles runAvg speedWind from/ knotsBaromVisibWave heightAir tempDewpointWater temp
2016-Aug-28 17:26N 32°38' W 091°09'4 5.1
2016-Aug-28 16:33N 32°34' W 091°07'5 4.6
2016-Aug-28 15:33N 32°30' W 091°07'5 4.9
2016-Aug-28 14:34N 32°26' W 091°03'4 4.0
2016-Aug-28 13:33N 32°23' W 090°60'4 3.6
2016-Aug-28 12:33N 32°21' W 090°56'3 3.4
2016-Aug-28 11:33N 32°18' W 090°56'5 4.6
2016-Aug-28 10:34N 32°14' W 090°59'4 3.5
2016-Aug-28 09:33N 32°10' W 090°60'4 3.8
2016-Aug-28 08:33N 32°07' W 091°03'3 3.3
2016-Aug-28 07:33N 32°07' W 091°06'4 4.0
2016-Aug-28 06:30N 32°03' W 091°03'  
Track history (hours):
 
Tides and Currents Weather Stations Pressure Air Temp Water Temp Dewpoint Dewpoint Depression Visibility Wind Speed Wind Dir Waves Ship Positions

Renee' T. Whatley

Owner: Terral RiverService, Inc., Lake Providence, LA. More information available from US FCC via Universal Licensing System and Coast Guard Vessel Documentation Center.

Last reported at 2016-Aug-28 17:26 UTC. Time now 2016-Sep-28 00:10 UTC.
Position N 32°38' W 091°09'.
Warning: this ship's position is 30 days out of date.

Length 11 m.

Type: Tug. MMSI: 367155550.

Date/timePositionNaut miles runAvg speedWind from/ knotsBaromVisibWave heightAir tempDewpointWater temp
2016-Aug-28 17:26N 32°38' W 091°09'4 5.1
2016-Aug-28 16:33N 32°34' W 091°07'5 4.6
2016-Aug-28 15:33N 32°30' W 091°07'5 4.9
2016-Aug-28 14:34N 32°26' W 091°03'4 4.0
2016-Aug-28 13:33N 32°23' W 090°60'4 3.6
2016-Aug-28 12:33N 32°21' W 090°56'3 3.4
2016-Aug-28 11:33N 32°18' W 090°56'5 4.6
2016-Aug-28 10:34N 32°14' W 090°59'4 3.5
2016-Aug-28 09:33N 32°10' W 090°60'4 3.8
2016-Aug-28 08:33N 32°07' W 091°03'3 3.3
2016-Aug-28 07:33N 32°07' W 091°06'4 4.0
2016-Aug-28 06:30N 32°03' W 091°03'  

Dump ship's entire track history